sensor_id;sensor_type;location;lat;lon;timestamp;P1;durP1;ratioP1;P2;durP2;ratioP2
13263;SDS011;6700;51.988;7.646;2023-07-16T00:00:27;2.63;;;1.90;;
13263;SDS011;6700;51.988;7.646;2023-07-16T00:02:54;3.97;;;2.00;;
13263;SDS011;6700;51.988;7.646;2023-07-16T00:05:22;5.03;;;2.10;;
13263;SDS011;6700;51.988;7.646;2023-07-16T00:07:49;2.33;;;1.90;;
13263;SDS011;6700;51.988;7.646;2023-07-16T00:10:16;1.97;;;1.80;;
13263;SDS011;6700;51.988;7.646;2023-07-16T00:12:44;4.60;;;2.37;;
13263;SDS011;6700;51.988;7.646;2023-07-16T00:15:11;4.57;;;2.07;;
13263;SDS011;6700;51.988;7.646;2023-07-16T00:17:38;3.50;;;2.10;;
13263;SDS011;6700;51.988;7.646;2023-07-16T00:20:05;3.13;;;2.10;;
13263;SDS011;6700;51.988;7.646;2023-07-16T00:22:33;2.10;;;1.90;;
13263;SDS011;6700;51.988;7.646;2023-07-16T00:25:00;2.27;;;1.90;;
13263;SDS011;6700;51.988;7.646;2023-07-16T00:27:28;3.70;;;2.07;;
13263;SDS011;6700;51.988;7.646;2023-07-16T00:29:56;2.07;;;1.80;;
13263;SDS011;6700;51.988;7.646;2023-07-16T00:32:23;2.00;;;1.80;;
13263;SDS011;6700;51.988;7.646;2023-07-16T00:34:50;3.03;;;2.10;;
13263;SDS011;6700;51.988;7.646;2023-07-16T00:37:17;2.27;;;1.97;;
13263;SDS011;6700;51.988;7.646;2023-07-16T00:39:44;3.87;;;2.13;;
13263;SDS011;6700;51.988;7.646;2023-07-16T00:42:11;3.03;;;2.47;;
13263;SDS011;6700;51.988;7.646;2023-07-16T00:44:38;3.50;;;2.30;;
13263;SDS011;6700;51.988;7.646;2023-07-16T00:47:05;2.40;;;2.20;;
13263;SDS011;6700;51.988;7.646;2023-07-16T00:49:32;3.57;;;2.23;;
13263;SDS011;6700;51.988;7.646;2023-07-16T00:52:00;2.60;;;2.40;;
13263;SDS011;6700;51.988;7.646;2023-07-16T00:54:28;3.70;;;2.57;;
13263;SDS011;6700;51.988;7.646;2023-07-16T00:56:55;4.80;;;2.93;;
13263;SDS011;6700;51.988;7.646;2023-07-16T00:59:22;4.17;;;2.10;;
13263;SDS011;6700;51.988;7.646;2023-07-16T01:01:50;2.33;;;2.10;;
13263;SDS011;6700;51.988;7.646;2023-07-16T01:04:17;2.87;;;2.20;;
13263;SDS011;6700;51.988;7.646;2023-07-16T01:06:48;3.63;;;2.70;;
13263;SDS011;6700;51.988;7.646;2023-07-16T01:09:19;4.60;;;2.70;;
13263;SDS011;6700;51.988;7.646;2023-07-16T01:11:47;3.30;;;2.53;;
13263;SDS011;6700;51.988;7.646;2023-07-16T01:14:16;3.43;;;2.50;;
13263;SDS011;6700;51.988;7.646;2023-07-16T01:16:43;4.53;;;2.63;;
13263;SDS011;6700;51.988;7.646;2023-07-16T01:19:11;3.37;;;2.70;;
13263;SDS011;6700;51.988;7.646;2023-07-16T01:21:43;6.60;;;2.80;;
13263;SDS011;6700;51.988;7.646;2023-07-16T01:29:38;2.67;;;2.33;;
13263;SDS011;6700;51.988;7.646;2023-07-16T01:32:07;3.17;;;2.37;;
13263;SDS011;6700;51.988;7.646;2023-07-16T01:34:34;4.80;;;2.53;;
13263;SDS011;6700;51.988;7.646;2023-07-16T01:37:02;3.00;;;1.93;;
13263;SDS011;6700;51.988;7.646;2023-07-16T01:39:30;5.93;;;2.70;;
13263;SDS011;6700;51.988;7.646;2023-07-16T01:41:58;3.87;;;2.37;;
13263;SDS011;6700;51.988;7.646;2023-07-16T01:44:26;6.50;;;2.90;;
13263;SDS011;6700;51.988;7.646;2023-07-16T01:47:08;3.30;;;2.30;;
13263;SDS011;6700;51.988;7.646;2023-07-16T01:49:35;3.23;;;2.43;;
13263;SDS011;6700;51.988;7.646;2023-07-16T01:52:03;4.80;;;2.90;;
13263;SDS011;6700;51.988;7.646;2023-07-16T01:54:30;5.07;;;2.17;;
13263;SDS011;6700;51.988;7.646;2023-07-16T01:56:58;2.53;;;2.20;;
13263;SDS011;6700;51.988;7.646;2023-07-16T01:59:25;2.53;;;2.33;;
13263;SDS011;6700;51.988;7.646;2023-07-16T02:01:52;3.83;;;2.20;;
13263;SDS011;6700;51.988;7.646;2023-07-16T02:04:20;5.33;;;2.60;;
13263;SDS011;6700;51.988;7.646;2023-07-16T02:06:47;3.00;;;2.63;;
13263;SDS011;6700;51.988;7.646;2023-07-16T02:09:14;3.93;;;2.47;;
13263;SDS011;6700;51.988;7.646;2023-07-16T02:11:41;3.17;;;2.53;;
13263;SDS011;6700;51.988;7.646;2023-07-16T02:14:08;6.30;;;2.70;;
13263;SDS011;6700;51.988;7.646;2023-07-16T02:16:36;4.17;;;2.77;;
13263;SDS011;6700;51.988;7.646;2023-07-16T02:19:03;4.33;;;2.60;;
13263;SDS011;6700;51.988;7.646;2023-07-16T02:21:30;3.07;;;2.70;;
13263;SDS011;6700;51.988;7.646;2023-07-16T02:23:57;6.50;;;2.63;;
13263;SDS011;6700;51.988;7.646;2023-07-16T02:26:24;3.50;;;2.73;;
13263;SDS011;6700;51.988;7.646;2023-07-16T02:28:52;4.83;;;2.37;;
13263;SDS011;6700;51.988;7.646;2023-07-16T02:31:19;2.93;;;2.57;;
13263;SDS011;6700;51.988;7.646;2023-07-16T02:33:46;3.57;;;2.90;;
13263;SDS011;6700;51.988;7.646;2023-07-16T02:36:13;4.00;;;2.73;;
13263;SDS011;6700;51.988;7.646;2023-07-16T02:38:41;4.33;;;3.30;;
13263;SDS011;6700;51.988;7.646;2023-07-16T02:41:08;5.27;;;2.80;;
13263;SDS011;6700;51.988;7.646;2023-07-16T02:43:35;4.00;;;2.43;;
13263;SDS011;6700;51.988;7.646;2023-07-16T02:46:02;3.63;;;2.63;;
13263;SDS011;6700;51.988;7.646;2023-07-16T02:48:29;6.57;;;3.40;;
13263;SDS011;6700;51.988;7.646;2023-07-16T02:50:56;4.73;;;2.67;;
13263;SDS011;6700;51.988;7.646;2023-07-16T02:53:23;5.93;;;3.63;;
13263;SDS011;6700;51.988;7.646;2023-07-16T02:55:50;4.67;;;3.30;;
13263;SDS011;6700;51.988;7.646;2023-07-16T02:58:18;3.90;;;3.03;;
13263;SDS011;6700;51.988;7.646;2023-07-16T03:00:45;4.80;;;3.27;;
13263;SDS011;6700;51.988;7.646;2023-07-16T03:03:12;6.77;;;3.47;;
13263;SDS011;6700;51.988;7.646;2023-07-16T03:05:40;4.43;;;3.40;;
13263;SDS011;6700;51.988;7.646;2023-07-16T03:08:07;5.17;;;3.83;;
13263;SDS011;6700;51.988;7.646;2023-07-16T03:10:34;8.93;;;4.73;;
13263;SDS011;6700;51.988;7.646;2023-07-16T03:13:01;6.07;;;3.80;;
13263;SDS011;6700;51.988;7.646;2023-07-16T03:15:28;4.87;;;3.40;;
13263;SDS011;6700;51.988;7.646;2023-07-16T03:17:55;4.43;;;3.60;;
13263;SDS011;6700;51.988;7.646;2023-07-16T03:20:23;8.20;;;3.93;;
13263;SDS011;6700;51.988;7.646;2023-07-16T03:22:50;7.80;;;4.30;;
13263;SDS011;6700;51.988;7.646;2023-07-16T03:25:17;5.30;;;3.40;;
13263;SDS011;6700;51.988;7.646;2023-07-16T03:27:44;7.20;;;4.03;;
13263;SDS011;6700;51.988;7.646;2023-07-16T03:30:12;7.00;;;4.20;;
13263;SDS011;6700;51.988;7.646;2023-07-16T03:32:39;4.97;;;3.83;;
13263;SDS011;6700;51.988;7.646;2023-07-16T03:35:18;4.70;;;3.50;;
13263;SDS011;6700;51.988;7.646;2023-07-16T03:37:48;7.80;;;4.10;;
13263;SDS011;6700;51.988;7.646;2023-07-16T03:40:16;5.10;;;3.60;;
13263;SDS011;6700;51.988;7.646;2023-07-16T03:42:43;5.00;;;4.10;;
13263;SDS011;6700;51.988;7.646;2023-07-16T03:45:11;6.23;;;3.97;;
13263;SDS011;6700;51.988;7.646;2023-07-16T03:47:38;6.80;;;4.43;;
13263;SDS011;6700;51.988;7.646;2023-07-16T03:50:06;7.17;;;3.97;;
13263;SDS011;6700;51.988;7.646;2023-07-16T03:52:33;5.33;;;3.97;;
13263;SDS011;6700;51.988;7.646;2023-07-16T03:55:00;5.30;;;4.30;;
13263;SDS011;6700;51.988;7.646;2023-07-16T03:57:28;6.33;;;4.23;;
13263;SDS011;6700;51.988;7.646;2023-07-16T03:59:56;6.70;;;4.43;;
13263;SDS011;6700;51.988;7.646;2023-07-16T04:02:24;6.90;;;4.07;;
13263;SDS011;6700;51.988;7.646;2023-07-16T04:04:51;5.57;;;3.80;;
13263;SDS011;6700;51.988;7.646;2023-07-16T04:07:19;6.13;;;4.10;;
13263;SDS011;6700;51.988;7.646;2023-07-16T04:09:46;5.50;;;4.27;;
13263;SDS011;6700;51.988;7.646;2023-07-16T04:12:13;6.23;;;3.30;;
13263;SDS011;6700;51.988;7.646;2023-07-16T04:14:40;4.87;;;3.50;;
13263;SDS011;6700;51.988;7.646;2023-07-16T04:17:08;6.20;;;3.40;;
13263;SDS011;6700;51.988;7.646;2023-07-16T04:19:35;5.57;;;3.17;;
13263;SDS011;6700;51.988;7.646;2023-07-16T04:22:02;5.10;;;3.07;;
13263;SDS011;6700;51.988;7.646;2023-07-16T04:24:29;5.30;;;2.70;;
13263;SDS011;6700;51.988;7.646;2023-07-16T04:26:57;5.40;;;2.87;;
13263;SDS011;6700;51.988;7.646;2023-07-16T04:29:24;7.03;;;3.27;;
13263;SDS011;6700;51.988;7.646;2023-07-16T04:31:51;8.53;;;3.00;;
13263;SDS011;6700;51.988;7.646;2023-07-16T04:34:19;8.33;;;2.83;;
13263;SDS011;6700;51.988;7.646;2023-07-16T04:36:46;3.53;;;3.07;;
13263;SDS011;6700;51.988;7.646;2023-07-16T04:39:13;4.67;;;3.00;;
13263;SDS011;6700;51.988;7.646;2023-07-16T04:41:40;5.57;;;3.07;;
13263;SDS011;6700;51.988;7.646;2023-07-16T04:44:07;4.93;;;3.00;;
13263;SDS011;6700;51.988;7.646;2023-07-16T04:46:34;3.03;;;2.60;;
13263;SDS011;6700;51.988;7.646;2023-07-16T04:49:02;8.33;;;3.30;;
13263;SDS011;6700;51.988;7.646;2023-07-16T04:51:30;5.47;;;2.50;;
13263;SDS011;6700;51.988;7.646;2023-07-16T04:53:57;4.13;;;2.17;;
13263;SDS011;6700;51.988;7.646;2023-07-16T04:56:24;4.10;;;2.70;;
13263;SDS011;6700;51.988;7.646;2023-07-16T04:58:51;3.43;;;2.40;;
13263;SDS011;6700;51.988;7.646;2023-07-16T05:01:18;5.53;;;2.70;;
13263;SDS011;6700;51.988;7.646;2023-07-16T05:03:46;4.33;;;2.67;;
13263;SDS011;6700;51.988;7.646;2023-07-16T05:06:14;4.73;;;2.63;;
13263;SDS011;6700;51.988;7.646;2023-07-16T05:08:41;7.40;;;2.60;;
13263;SDS011;6700;51.988;7.646;2023-07-16T05:11:12;6.77;;;2.80;;
13263;SDS011;6700;51.988;7.646;2023-07-16T05:13:39;6.67;;;3.00;;
13263;SDS011;6700;51.988;7.646;2023-07-16T05:16:06;6.43;;;2.70;;
13263;SDS011;6700;51.988;7.646;2023-07-16T05:18:33;8.20;;;3.67;;
13263;SDS011;6700;51.988;7.646;2023-07-16T05:21:00;8.13;;;3.10;;
13263;SDS011;6700;51.988;7.646;2023-07-16T05:23:28;5.23;;;3.23;;
13263;SDS011;6700;51.988;7.646;2023-07-16T05:25:55;9.20;;;3.40;;
13263;SDS011;6700;51.988;7.646;2023-07-16T05:28:22;6.33;;;3.33;;
13263;SDS011;6700;51.988;7.646;2023-07-16T05:30:57;3.47;;;3.03;;
13263;SDS011;6700;51.988;7.646;2023-07-16T05:33:24;9.10;;;3.37;;
13263;SDS011;6700;51.988;7.646;2023-07-16T05:35:51;5.33;;;3.23;;
13263;SDS011;6700;51.988;7.646;2023-07-16T05:38:18;6.47;;;3.27;;
13263;SDS011;6700;51.988;7.646;2023-07-16T05:40:45;5.73;;;3.50;;
13263;SDS011;6700;51.988;7.646;2023-07-16T05:43:12;4.87;;;3.53;;
13263;SDS011;6700;51.988;7.646;2023-07-16T05:45:41;5.27;;;3.33;;
13263;SDS011;6700;51.988;7.646;2023-07-16T05:48:08;7.60;;;3.93;;
13263;SDS011;6700;51.988;7.646;2023-07-16T05:50:35;7.50;;;4.37;;
13263;SDS011;6700;51.988;7.646;2023-07-16T05:53:02;5.03;;;3.37;;
13263;SDS011;6700;51.988;7.646;2023-07-16T05:55:30;5.77;;;3.63;;
13263;SDS011;6700;51.988;7.646;2023-07-16T05:57:57;7.20;;;4.07;;
13263;SDS011;6700;51.988;7.646;2023-07-16T06:00:24;5.77;;;3.90;;
13263;SDS011;6700;51.988;7.646;2023-07-16T06:02:51;4.57;;;3.30;;
13263;SDS011;6700;51.988;7.646;2023-07-16T06:05:18;10.03;;;3.73;;
13263;SDS011;6700;51.988;7.646;2023-07-16T06:07:45;9.07;;;3.97;;
13263;SDS011;6700;51.988;7.646;2023-07-16T06:10:12;4.53;;;3.33;;
13263;SDS011;6700;51.988;7.646;2023-07-16T06:12:40;6.30;;;4.00;;
13263;SDS011;6700;51.988;7.646;2023-07-16T06:15:07;7.87;;;3.93;;
13263;SDS011;6700;51.988;7.646;2023-07-16T06:17:35;5.57;;;4.30;;
13263;SDS011;6700;51.988;7.646;2023-07-16T06:20:02;5.13;;;3.97;;
13263;SDS011;6700;51.988;7.646;2023-07-16T06:22:30;8.20;;;4.77;;
13263;SDS011;6700;51.988;7.646;2023-07-16T06:24:57;5.10;;;4.00;;
13263;SDS011;6700;51.988;7.646;2023-07-16T06:27:25;10.93;;;4.43;;
13263;SDS011;6700;51.988;7.646;2023-07-16T06:29:53;8.13;;;4.20;;
13263;SDS011;6700;51.988;7.646;2023-07-16T06:32:20;9.80;;;4.40;;
13263;SDS011;6700;51.988;7.646;2023-07-16T06:34:47;7.63;;;4.70;;
13263;SDS011;6700;51.988;7.646;2023-07-16T06:37:14;9.23;;;4.30;;
13263;SDS011;6700;51.988;7.646;2023-07-16T06:39:41;8.10;;;3.90;;
13263;SDS011;6700;51.988;7.646;2023-07-16T06:42:08;4.40;;;3.50;;
13263;SDS011;6700;51.988;7.646;2023-07-16T06:44:35;9.47;;;4.13;;
13263;SDS011;6700;51.988;7.646;2023-07-16T06:47:03;6.63;;;4.20;;
13263;SDS011;6700;51.988;7.646;2023-07-16T06:49:30;7.10;;;3.40;;
13263;SDS011;6700;51.988;7.646;2023-07-16T06:51:57;6.67;;;3.77;;
13263;SDS011;6700;51.988;7.646;2023-07-16T06:54:24;7.55;;;4.10;;
13263;SDS011;6700;51.988;7.646;2023-07-16T06:56:51;7.97;;;4.30;;
13263;SDS011;6700;51.988;7.646;2023-07-16T06:59:18;7.90;;;3.80;;
13263;SDS011;6700;51.988;7.646;2023-07-16T07:01:46;10.88;;;4.65;;
13263;SDS011;6700;51.988;7.646;2023-07-16T07:04:13;10.90;;;3.88;;
13263;SDS011;6700;51.988;7.646;2023-07-16T07:06:40;9.10;;;3.63;;
13263;SDS011;6700;51.988;7.646;2023-07-16T07:09:07;8.00;;;4.30;;
13263;SDS011;6700;51.988;7.646;2023-07-16T07:11:34;4.63;;;3.42;;
13263;SDS011;6700;51.988;7.646;2023-07-16T07:14:01;7.22;;;3.80;;
13263;SDS011;6700;51.988;7.646;2023-07-16T07:16:29;6.67;;;3.63;;
13263;SDS011;6700;51.988;7.646;2023-07-16T07:18:56;9.02;;;3.70;;
13263;SDS011;6700;51.988;7.646;2023-07-16T07:21:23;9.50;;;4.32;;
13263;SDS011;6700;51.988;7.646;2023-07-16T07:23:50;7.65;;;4.13;;
13263;SDS011;6700;51.988;7.646;2023-07-16T07:26:18;7.05;;;4.40;;
13263;SDS011;6700;51.988;7.646;2023-07-16T07:28:45;9.30;;;3.95;;
13263;SDS011;6700;51.988;7.646;2023-07-16T07:31:12;8.40;;;3.83;;
13263;SDS011;6700;51.988;7.646;2023-07-16T07:33:39;6.60;;;4.32;;
13263;SDS011;6700;51.988;7.646;2023-07-16T07:36:06;7.05;;;4.15;;
13263;SDS011;6700;51.988;7.646;2023-07-16T07:38:33;8.90;;;4.10;;
13263;SDS011;6700;51.988;7.646;2023-07-16T07:41:01;7.28;;;4.47;;
13263;SDS011;6700;51.988;7.646;2023-07-16T07:43:28;6.43;;;4.35;;
13263;SDS011;6700;51.988;7.646;2023-07-16T07:45:55;6.75;;;4.43;;
13263;SDS011;6700;51.988;7.646;2023-07-16T07:48:22;9.38;;;4.47;;
13263;SDS011;6700;51.988;7.646;2023-07-16T07:50:49;8.70;;;4.13;;
13263;SDS011;6700;51.988;7.646;2023-07-16T07:53:18;5.97;;;4.25;;
13263;SDS011;6700;51.988;7.646;2023-07-16T07:55:46;7.03;;;3.90;;
13263;SDS011;6700;51.988;7.646;2023-07-16T07:58:13;9.88;;;3.75;;
13263;SDS011;6700;51.988;7.646;2023-07-16T08:00:40;6.97;;;3.88;;
13263;SDS011;6700;51.988;7.646;2023-07-16T08:03:07;7.20;;;4.07;;
13263;SDS011;6700;51.988;7.646;2023-07-16T08:05:34;7.38;;;4.00;;
13263;SDS011;6700;51.988;7.646;2023-07-16T08:08:01;8.88;;;4.40;;
13263;SDS011;6700;51.988;7.646;2023-07-16T08:10:29;9.27;;;4.25;;
13263;SDS011;6700;51.988;7.646;2023-07-16T08:12:56;3.72;;;3.40;;
13263;SDS011;6700;51.988;7.646;2023-07-16T08:15:23;6.03;;;3.88;;
13263;SDS011;6700;51.988;7.646;2023-07-16T08:17:50;5.32;;;4.05;;
13263;SDS011;6700;51.988;7.646;2023-07-16T08:20:17;6.20;;;3.83;;
13263;SDS011;6700;51.988;7.646;2023-07-16T08:22:45;5.13;;;3.67;;
13263;SDS011;6700;51.988;7.646;2023-07-16T08:25:12;5.45;;;3.38;;
13263;SDS011;6700;51.988;7.646;2023-07-16T08:27:39;5.03;;;4.00;;
13263;SDS011;6700;51.988;7.646;2023-07-16T08:30:06;5.00;;;3.85;;
13263;SDS011;6700;51.988;7.646;2023-07-16T08:32:34;5.32;;;3.97;;
13263;SDS011;6700;51.988;7.646;2023-07-16T08:35:01;6.10;;;3.53;;
13263;SDS011;6700;51.988;7.646;2023-07-16T08:37:28;8.68;;;4.25;;
13263;SDS011;6700;51.988;7.646;2023-07-16T08:39:55;6.28;;;3.80;;
13263;SDS011;6700;51.988;7.646;2023-07-16T08:42:23;6.38;;;3.40;;
13263;SDS011;6700;51.988;7.646;2023-07-16T08:44:50;6.88;;;4.03;;
13263;SDS011;6700;51.988;7.646;2023-07-16T08:47:17;6.22;;;4.30;;
13263;SDS011;6700;51.988;7.646;2023-07-16T08:49:53;4.07;;;3.53;;
13263;SDS011;6700;51.988;7.646;2023-07-16T08:52:22;6.22;;;3.65;;
13263;SDS011;6700;51.988;7.646;2023-07-16T08:54:49;6.40;;;3.85;;
13263;SDS011;6700;51.988;7.646;2023-07-16T08:57:16;7.25;;;3.88;;
13263;SDS011;6700;51.988;7.646;2023-07-16T08:59:44;4.70;;;3.53;;
13263;SDS011;6700;51.988;7.646;2023-07-16T09:02:15;5.88;;;3.83;;
13263;SDS011;6700;51.988;7.646;2023-07-16T09:04:43;5.25;;;4.07;;
13263;SDS011;6700;51.988;7.646;2023-07-16T09:07:10;3.72;;;2.90;;
13263;SDS011;6700;51.988;7.646;2023-07-16T09:09:37;8.35;;;3.58;;
13263;SDS011;6700;51.988;7.646;2023-07-16T09:12:05;5.63;;;3.53;;
13263;SDS011;6700;51.988;7.646;2023-07-16T09:14:32;5.40;;;3.45;;
13263;SDS011;6700;51.988;7.646;2023-07-16T09:16:59;5.60;;;3.60;;
13263;SDS011;6700;51.988;7.646;2023-07-16T09:19:27;5.50;;;4.05;;
13263;SDS011;6700;51.988;7.646;2023-07-16T09:21:54;5.25;;;3.80;;
13263;SDS011;6700;51.988;7.646;2023-07-16T09:24:21;6.15;;;3.75;;
13263;SDS011;6700;51.988;7.646;2023-07-16T09:26:49;6.32;;;3.75;;
13263;SDS011;6700;51.988;7.646;2023-07-16T09:29:17;5.50;;;3.67;;
13263;SDS011;6700;51.988;7.646;2023-07-16T09:32:18;5.32;;;3.60;;
13263;SDS011;6700;51.988;7.646;2023-07-16T09:34:38;7.38;;;3.17;;
13263;SDS011;6700;51.988;7.646;2023-07-16T09:37:05;5.07;;;3.72;;
13263;SDS011;6700;51.988;7.646;2023-07-16T09:39:32;5.75;;;4.20;;
13263;SDS011;6700;51.988;7.646;2023-07-16T09:42:01;9.48;;;5.20;;
13263;SDS011;6700;51.988;7.646;2023-07-16T09:44:29;4.25;;;3.60;;
13263;SDS011;6700;51.988;7.646;2023-07-16T09:46:57;6.72;;;3.40;;
13263;SDS011;6700;51.988;7.646;2023-07-16T09:49:25;5.45;;;4.10;;
13263;SDS011;6700;51.988;7.646;2023-07-16T09:51:56;5.25;;;3.40;;
13263;SDS011;6700;51.988;7.646;2023-07-16T09:54:24;4.45;;;3.50;;
13263;SDS011;6700;51.988;7.646;2023-07-16T09:56:54;5.32;;;3.63;;
13263;SDS011;6700;51.988;7.646;2023-07-16T09:59:25;5.35;;;3.55;;
13263;SDS011;6700;51.988;7.646;2023-07-16T10:01:54;5.30;;;3.72;;
13263;SDS011;6700;51.988;7.646;2023-07-16T10:04:22;7.47;;;4.00;;
13263;SDS011;6700;51.988;7.646;2023-07-16T10:09:37;6.68;;;4.82;;
13263;SDS011;6700;51.988;7.646;2023-07-16T10:12:11;6.13;;;3.75;;
13263;SDS011;6700;51.988;7.646;2023-07-16T10:14:40;5.70;;;3.47;;
13263;SDS011;6700;51.988;7.646;2023-07-16T10:17:11;8.70;;;3.60;;
13263;SDS011;6700;51.988;7.646;2023-07-16T10:19:58;5.57;;;3.65;;
13263;SDS011;6700;51.988;7.646;2023-07-16T10:25:03;5.30;;;4.03;;
13263;SDS011;6700;51.988;7.646;2023-07-16T10:27:31;4.82;;;3.92;;
13263;SDS011;6700;51.988;7.646;2023-07-16T10:29:59;6.10;;;3.78;;
13263;SDS011;6700;51.988;7.646;2023-07-16T10:32:29;7.72;;;3.63;;
13263;SDS011;6700;51.988;7.646;2023-07-16T10:34:56;4.15;;;3.65;;
13263;SDS011;6700;51.988;7.646;2023-07-16T10:37:24;5.95;;;3.70;;
13263;SDS011;6700;51.988;7.646;2023-07-16T10:39:55;6.95;;;3.85;;
13263;SDS011;6700;51.988;7.646;2023-07-16T10:42:23;9.82;;;4.10;;
13263;SDS011;6700;51.988;7.646;2023-07-16T10:44:54;7.32;;;3.78;;
13263;SDS011;6700;51.988;7.646;2023-07-16T10:47:22;4.63;;;3.83;;
13263;SDS011;6700;51.988;7.646;2023-07-16T10:49:50;7.43;;;3.72;;
13263;SDS011;6700;51.988;7.646;2023-07-16T10:52:21;5.15;;;3.65;;
13263;SDS011;6700;51.988;7.646;2023-07-16T10:54:49;7.25;;;4.15;;
13263;SDS011;6700;51.988;7.646;2023-07-16T10:57:21;5.15;;;3.47;;
13263;SDS011;6700;51.988;7.646;2023-07-16T10:59:50;7.05;;;3.70;;
13263;SDS011;6700;51.988;7.646;2023-07-16T11:02:17;5.50;;;3.65;;
13263;SDS011;6700;51.988;7.646;2023-07-16T11:04:45;6.57;;;3.30;;
13263;SDS011;6700;51.988;7.646;2023-07-16T11:07:13;4.47;;;3.53;;
13263;SDS011;6700;51.988;7.646;2023-07-16T11:09:44;6.95;;;3.88;;
13263;SDS011;6700;51.988;7.646;2023-07-16T11:12:12;6.63;;;3.92;;
13263;SDS011;6700;51.988;7.646;2023-07-16T11:14:49;4.30;;;3.90;;
13263;SDS011;6700;51.988;7.646;2023-07-16T11:17:17;7.97;;;4.32;;
13263;SDS011;6700;51.988;7.646;2023-07-16T11:19:45;5.72;;;3.75;;
13263;SDS011;6700;51.988;7.646;2023-07-16T11:22:13;5.90;;;3.40;;
13263;SDS011;6700;51.988;7.646;2023-07-16T11:24:44;7.32;;;3.67;;
13263;SDS011;6700;51.988;7.646;2023-07-16T11:27:13;6.97;;;3.97;;
13263;SDS011;6700;51.988;7.646;2023-07-16T11:29:45;6.97;;;3.80;;
13263;SDS011;6700;51.988;7.646;2023-07-16T11:32:13;7.32;;;4.20;;
13263;SDS011;6700;51.988;7.646;2023-07-16T11:34:53;6.00;;;4.07;;
13263;SDS011;6700;51.988;7.646;2023-07-16T11:37:21;8.23;;;3.55;;
13263;SDS011;6700;51.988;7.646;2023-07-16T11:39:48;8.95;;;4.20;;
13263;SDS011;6700;51.988;7.646;2023-07-16T11:42:22;5.18;;;3.55;;
13263;SDS011;6700;51.988;7.646;2023-07-16T11:44:50;4.50;;;3.67;;
13263;SDS011;6700;51.988;7.646;2023-07-16T11:47:17;7.45;;;4.22;;
13263;SDS011;6700;51.988;7.646;2023-07-16T11:49:44;6.15;;;3.53;;
13263;SDS011;6700;51.988;7.646;2023-07-16T11:52:12;4.50;;;3.42;;
13263;SDS011;6700;51.988;7.646;2023-07-16T11:54:39;4.68;;;3.25;;
13263;SDS011;6700;51.988;7.646;2023-07-16T11:57:06;6.13;;;3.60;;
13263;SDS011;6700;51.988;7.646;2023-07-16T11:59:33;4.57;;;3.65;;
13263;SDS011;6700;51.988;7.646;2023-07-16T12:02:01;4.95;;;3.30;;
13263;SDS011;6700;51.988;7.646;2023-07-16T12:04:29;4.82;;;3.33;;
13263;SDS011;6700;51.988;7.646;2023-07-16T12:06:56;5.80;;;3.58;;
13263;SDS011;6700;51.988;7.646;2023-07-16T12:09:23;4.72;;;3.60;;
13263;SDS011;6700;51.988;7.646;2023-07-16T12:11:51;6.28;;;4.35;;
13263;SDS011;6700;51.988;7.646;2023-07-16T12:14:18;6.35;;;3.92;;
13263;SDS011;6700;51.988;7.646;2023-07-16T12:16:45;4.88;;;3.88;;
13263;SDS011;6700;51.988;7.646;2023-07-16T12:19:12;4.82;;;3.58;;
13263;SDS011;6700;51.988;7.646;2023-07-16T12:21:40;5.78;;;3.85;;
13263;SDS011;6700;51.988;7.646;2023-07-16T12:24:07;4.88;;;3.30;;
13263;SDS011;6700;51.988;7.646;2023-07-16T12:26:34;7.03;;;3.58;;
13263;SDS011;6700;51.988;7.646;2023-07-16T12:29:02;5.70;;;3.42;;
13263;SDS011;6700;51.988;7.646;2023-07-16T12:31:30;6.55;;;3.70;;
13263;SDS011;6700;51.988;7.646;2023-07-16T12:33:58;4.60;;;3.83;;
13263;SDS011;6700;51.988;7.646;2023-07-16T12:36:26;6.30;;;3.60;;
13263;SDS011;6700;51.988;7.646;2023-07-16T12:38:54;4.05;;;3.15;;
13263;SDS011;6700;51.988;7.646;2023-07-16T12:41:21;6.30;;;3.40;;
13263;SDS011;6700;51.988;7.646;2023-07-16T12:43:48;4.47;;;3.97;;
13263;SDS011;6700;51.988;7.646;2023-07-16T12:46:15;7.15;;;3.78;;
13263;SDS011;6700;51.988;7.646;2023-07-16T12:48:43;5.40;;;3.65;;
13263;SDS011;6700;51.988;7.646;2023-07-16T12:51:10;5.47;;;3.80;;
13263;SDS011;6700;51.988;7.646;2023-07-16T12:53:37;6.43;;;3.33;;
13263;SDS011;6700;51.988;7.646;2023-07-16T12:56:04;5.72;;;3.63;;
13263;SDS011;6700;51.988;7.646;2023-07-16T12:58:32;4.68;;;3.60;;
13263;SDS011;6700;51.988;7.646;2023-07-16T13:00:59;4.72;;;4.00;;
13263;SDS011;6700;51.988;7.646;2023-07-16T13:03:26;6.97;;;3.95;;
13263;SDS011;6700;51.988;7.646;2023-07-16T13:05:53;6.63;;;3.92;;
13263;SDS011;6700;51.988;7.646;2023-07-16T13:08:21;4.88;;;3.47;;
13263;SDS011;6700;51.988;7.646;2023-07-16T13:10:48;7.53;;;4.82;;
13263;SDS011;6700;51.988;7.646;2023-07-16T13:13:15;5.47;;;3.33;;
13263;SDS011;6700;51.988;7.646;2023-07-16T13:15:42;9.43;;;3.85;;
13263;SDS011;6700;51.988;7.646;2023-07-16T13:18:11;4.97;;;3.60;;
13263;SDS011;6700;51.988;7.646;2023-07-16T13:20:38;4.93;;;4.07;;
13263;SDS011;6700;51.988;7.646;2023-07-16T13:23:06;4.80;;;3.60;;
13263;SDS011;6700;51.988;7.646;2023-07-16T13:25:35;8.35;;;3.72;;
13263;SDS011;6700;51.988;7.646;2023-07-16T13:28:05;7.93;;;3.85;;
13263;SDS011;6700;51.988;7.646;2023-07-16T13:30:32;4.05;;;3.50;;
13263;SDS011;6700;51.988;7.646;2023-07-16T13:32:59;7.50;;;3.45;;
13263;SDS011;6700;51.988;7.646;2023-07-16T13:35:27;6.88;;;4.45;;
13263;SDS011;6700;51.988;7.646;2023-07-16T13:37:54;4.43;;;3.25;;
13263;SDS011;6700;51.988;7.646;2023-07-16T13:40:22;5.68;;;3.85;;
13263;SDS011;6700;51.988;7.646;2023-07-16T13:42:49;3.75;;;3.40;;
13263;SDS011;6700;51.988;7.646;2023-07-16T13:45:16;5.82;;;3.53;;
13263;SDS011;6700;51.988;7.646;2023-07-16T13:47:43;8.75;;;4.28;;
13263;SDS011;6700;51.988;7.646;2023-07-16T13:50:11;8.85;;;3.60;;
13263;SDS011;6700;51.988;7.646;2023-07-16T13:52:38;5.82;;;3.65;;
13263;SDS011;6700;51.988;7.646;2023-07-16T13:55:05;4.57;;;3.70;;
13263;SDS011;6700;51.988;7.646;2023-07-16T13:57:33;3.80;;;3.42;;
13263;SDS011;6700;51.988;7.646;2023-07-16T14:00:00;6.32;;;3.40;;
13263;SDS011;6700;51.988;7.646;2023-07-16T14:02:27;6.55;;;3.45;;
13263;SDS011;6700;51.988;7.646;2023-07-16T14:04:55;4.38;;;3.10;;
13263;SDS011;6700;51.988;7.646;2023-07-16T14:07:22;4.28;;;3.28;;
13263;SDS011;6700;51.988;7.646;2023-07-16T14:09:50;6.20;;;3.33;;
13263;SDS011;6700;51.988;7.646;2023-07-16T14:12:17;4.30;;;3.28;;
13263;SDS011;6700;51.988;7.646;2023-07-16T14:14:44;3.42;;;2.70;;
13263;SDS011;6700;51.988;7.646;2023-07-16T14:17:11;3.60;;;3.22;;
13263;SDS011;6700;51.988;7.646;2023-07-16T14:19:38;8.18;;;4.10;;
13263;SDS011;6700;51.988;7.646;2023-07-16T14:22:06;6.03;;;4.13;;
13263;SDS011;6700;51.988;7.646;2023-07-16T14:24:37;5.63;;;3.05;;
13263;SDS011;6700;51.988;7.646;2023-07-16T14:27:06;4.32;;;2.80;;
13263;SDS011;6700;51.988;7.646;2023-07-16T14:29:34;7.13;;;3.47;;
13263;SDS011;6700;51.988;7.646;2023-07-16T14:32:12;4.75;;;3.30;;
13263;SDS011;6700;51.988;7.646;2023-07-16T14:34:40;4.85;;;3.78;;
13263;SDS011;6700;51.988;7.646;2023-07-16T14:37:07;5.50;;;3.20;;
13263;SDS011;6700;51.988;7.646;2023-07-16T14:39:34;6.85;;;3.95;;
13263;SDS011;6700;51.988;7.646;2023-07-16T14:42:01;6.60;;;3.13;;
13263;SDS011;6700;51.988;7.646;2023-07-16T14:44:30;4.70;;;3.67;;
13263;SDS011;6700;51.988;7.646;2023-07-16T14:46:57;4.13;;;3.17;;
13263;SDS011;6700;51.988;7.646;2023-07-16T14:49:24;3.22;;;2.80;;
13263;SDS011;6700;51.988;7.646;2023-07-16T14:51:51;4.63;;;3.00;;
13263;SDS011;6700;51.988;7.646;2023-07-16T14:54:18;8.63;;;3.15;;
13263;SDS011;6700;51.988;7.646;2023-07-16T14:56:46;3.63;;;2.70;;
13263;SDS011;6700;51.988;7.646;2023-07-16T14:59:14;5.05;;;3.13;;
13263;SDS011;6700;51.988;7.646;2023-07-16T15:01:41;3.80;;;2.90;;
13263;SDS011;6700;51.988;7.646;2023-07-16T15:04:08;3.45;;;2.58;;
13263;SDS011;6700;51.988;7.646;2023-07-16T15:06:35;3.63;;;2.60;;
13263;SDS011;6700;51.988;7.646;2023-07-16T15:09:04;4.88;;;2.67;;
13263;SDS011;6700;51.988;7.646;2023-07-16T15:11:31;2.90;;;2.67;;
13263;SDS011;6700;51.988;7.646;2023-07-16T15:14:00;4.07;;;3.00;;